| Date | Time | Temp. (oF) | Dew Point (oF) | Rel. Hum. (%) | Press. (in.) | Wind Dir. | Wind Speed (mph) | Hourly Rainfall (in.) |
|
|---|---|---|---|---|---|---|---|---|---|
| 1 | 10/22 | 00:00 | 40 | 35 | 85 | 29.87 | SSE | 0 | 0.00 |
| 2 | 10/21 | 23:00 | 41 | 33 | 74 | 29.85 | S | 0 | 0.00 |
| 3 | 10/21 | 22:00 | 42 | 31 | 66 | 29.83 | SE | 0 | 0.00 |
| 4 | 10/21 | 21:00 | 47 | 29 | 51 | 29.81 | SE | 0 | 0.00 |
| 5 | 10/21 | 20:00 | 49 | 28 | 45 | 29.80 | SSE | 0 | 0.00 |
| 6 | 10/21 | 19:00 | 54 | 26 | 34 | 29.77 | SSW | 0 | 0.00 |
| 7 | 10/21 | 18:00 | 57 | 26 | 31 | 29.73 | SW | 0 | 0.00 |
| 8 | 10/21 | 17:00 | 59 | 28 | 32 | 29.70 | S | 0 | 0.00 |
| 9 | 10/21 | 16:00 | 61 | 28 | 29 | 29.67 | S | 0 | 0.00 |
| 10 | 10/21 | 15:00 | 62 | 30 | 31 | 29.65 | SSW | 0 | 0.00 |
| 11 | 10/21 | 14:00 | 62 | 34 | 36 | 29.65 | SW | 0 | 0.00 |
| 12 | 10/21 | 13:00 | 62 | 37 | 41 | 29.65 | SW | 0 | 0.00 |
| 13 | 10/21 | 12:00 | 60 | 41 | 51 | 29.66 | W | 0 | 0.00 |
| 14 | 10/21 | 11:00 | 60 | 42 | 53 | 29.65 | SE | 0 | 0.00 |
| 15 | 10/21 | 10:00 | 57 | 49 | 77 | 29.66 | ESE | 0 | 0.00 |
| 16 | 10/21 | 09:00 | 50 | 45 | 84 | 29.65 | E | 0 | 0.00 |
| 17 | 10/21 | 08:00 | 49 | 44 | 83 | 29.65 | ESE | 0 | 0.00 |
| 18 | 10/21 | 07:00 | 49 | 43 | 82 | 29.63 | ESE | 0 | 0.00 |
| 19 | 10/21 | 06:00 | 48 | 40 | 75 | 29.64 | E | 0 | 0.00 |
| 20 | 10/21 | 05:00 | 47 | 37 | 70 | 29.66 | E | 0 | 0.00 |
| 21 | 10/21 | 04:00 | 48 | 39 | 72 | 29.69 | E | 0 | 0.00 |
| 22 | 10/21 | 03:00 | 49 | 40 | 72 | 29.73 | E | 0 | 0.00 |
| 23 | 10/21 | 02:00 | 50 | 41 | 72 | 29.76 | ESE | 0 | 0.00 |
| 24 | 10/21 | 01:00 | 50 | 40 | 71 | 29.78 | ENE | 0 | 0.00 |